sensor_id;sensor_type;location;lat;lon;timestamp;pressure;altitude;pressure_sealevel;temperature;humidity
21956;BME280;11142;49.930;8.606;2023-04-05T00:02:22;100822.22;;;2.87;87.66
21956;BME280;11142;49.930;8.606;2023-04-05T00:04:55;100832.31;;;2.95;89.19
21956;BME280;11142;49.930;8.606;2023-04-05T00:07:25;100824.91;;;2.81;89.78
21956;BME280;11142;49.930;8.606;2023-04-05T00:09:53;100826.78;;;2.72;91.35
21956;BME280;11142;49.930;8.606;2023-04-05T00:12:22;100830.16;;;2.74;92.85
21956;BME280;11142;49.930;8.606;2023-04-05T00:14:51;100824.06;;;2.79;93.36
21956;BME280;11142;49.930;8.606;2023-04-05T00:17:20;100811.38;;;2.73;93.61
21956;BME280;11142;49.930;8.606;2023-04-05T00:19:48;100816.44;;;2.78;94.23
21956;BME280;11142;49.930;8.606;2023-04-05T00:22:23;100813.72;;;2.85;96.93
21956;BME280;11142;49.930;8.606;2023-04-05T00:24:53;100815.38;;;2.86;100.00
21956;BME280;11142;49.930;8.606;2023-04-05T00:27:21;100817.88;;;2.89;99.15
21956;BME280;11142;49.930;8.606;2023-04-05T00:29:49;100816.88;;;2.98;97.34
21956;BME280;11142;49.930;8.606;2023-04-05T00:32:19;100807.94;;;3.15;93.83
21956;BME280;11142;49.930;8.606;2023-04-05T00:34:48;100816.38;;;3.20;91.28
21956;BME280;11142;49.930;8.606;2023-04-05T00:37:17;100810.16;;;3.31;90.51
21956;BME280;11142;49.930;8.606;2023-04-05T00:39:45;100817.91;;;3.28;91.67
21956;BME280;11142;49.930;8.606;2023-04-05T00:42:14;100812.19;;;3.16;90.06
21956;BME280;11142;49.930;8.606;2023-04-05T00:44:42;100813.16;;;3.11;90.44
21956;BME280;11142;49.930;8.606;2023-04-05T00:47:10;100809.06;;;3.02;90.72
21956;BME280;11142;49.930;8.606;2023-04-05T00:49:40;100811.97;;;2.86;91.35
21956;BME280;11142;49.930;8.606;2023-04-05T00:52:08;100810.44;;;2.79;92.69
21956;BME280;11142;49.930;8.606;2023-04-05T00:54:37;100810.31;;;2.83;91.58
21956;BME280;11142;49.930;8.606;2023-04-05T00:57:07;100805.25;;;2.82;91.81
21956;BME280;11142;49.930;8.606;2023-04-05T00:59:36;100799.16;;;2.87;91.36
21956;BME280;11142;49.930;8.606;2023-04-05T01:02:05;100797.38;;;2.91;90.92
21956;BME280;11142;49.930;8.606;2023-04-05T01:04:41;100799.34;;;2.78;90.27
21956;BME280;11142;49.930;8.606;2023-04-05T01:07:16;100798.38;;;2.84;90.51
21956;BME280;11142;49.930;8.606;2023-04-05T01:09:52;100796.66;;;2.84;90.32
21956;BME280;11142;49.930;8.606;2023-04-05T01:12:22;100790.16;;;2.66;89.72
21956;BME280;11142;49.930;8.606;2023-04-05T01:14:51;100791.91;;;2.66;90.63
21956;BME280;11142;49.930;8.606;2023-04-05T01:17:20;100791.84;;;2.69;91.39
21956;BME280;11142;49.930;8.606;2023-04-05T01:19:50;100791.25;;;2.56;91.55
21956;BME280;11142;49.930;8.606;2023-04-05T01:25:14;100793.19;;;2.44;96.12
21956;BME280;11142;49.930;8.606;2023-04-05T01:30:34;100780.66;;;2.29;96.06
21956;BME280;11142;49.930;8.606;2023-04-05T01:33:09;100780.19;;;2.08;97.09
21956;BME280;11142;49.930;8.606;2023-04-05T01:35:43;100771.00;;;1.97;98.29
21956;BME280;11142;49.930;8.606;2023-04-05T01:38:14;100777.06;;;1.91;100.00
21956;BME280;11142;49.930;8.606;2023-04-05T01:40:44;100766.06;;;1.86;100.00
21956;BME280;11142;49.930;8.606;2023-04-05T01:43:13;100761.81;;;1.85;100.00
21956;BME280;11142;49.930;8.606;2023-04-05T01:45:43;100766.81;;;1.91;100.00
21956;BME280;11142;49.930;8.606;2023-04-05T01:48:11;100762.72;;;1.81;100.00
21956;BME280;11142;49.930;8.606;2023-04-05T01:50:40;100762.88;;;1.72;100.00
21956;BME280;11142;49.930;8.606;2023-04-05T01:53:09;100754.63;;;1.58;100.00
21956;BME280;11142;49.930;8.606;2023-04-05T01:55:37;100757.34;;;1.46;100.00
21956;BME280;11142;49.930;8.606;2023-04-05T01:58:07;100760.88;;;1.39;100.00
21956;BME280;11142;49.930;8.606;2023-04-05T02:00:36;100757.63;;;1.29;100.00
21956;BME280;11142;49.930;8.606;2023-04-05T02:03:06;100761.13;;;1.21;100.00
21956;BME280;11142;49.930;8.606;2023-04-05T02:05:34;100753.50;;;1.18;100.00
21956;BME280;11142;49.930;8.606;2023-04-05T02:08:02;100762.97;;;1.11;100.00
21956;BME280;11142;49.930;8.606;2023-04-05T02:10:31;100754.53;;;1.08;100.00
21956;BME280;11142;49.930;8.606;2023-04-05T02:12:59;100751.19;;;1.02;100.00
21956;BME280;11142;49.930;8.606;2023-04-05T02:15:28;100756.13;;;1.15;100.00
21956;BME280;11142;49.930;8.606;2023-04-05T02:17:58;100750.06;;;1.22;100.00
21956;BME280;11142;49.930;8.606;2023-04-05T02:20:29;100745.84;;;1.18;100.00
21956;BME280;11142;49.930;8.606;2023-04-05T02:22:58;100750.13;;;1.17;100.00
21956;BME280;11142;49.930;8.606;2023-04-05T02:25:27;100754.44;;;1.14;100.00
21956;BME280;11142;49.930;8.606;2023-04-05T02:27:56;100759.47;;;1.18;100.00
21956;BME280;11142;49.930;8.606;2023-04-05T02:30:24;100749.34;;;1.12;100.00
21956;BME280;11142;49.930;8.606;2023-04-05T02:32:55;100750.19;;;1.11;100.00
21956;BME280;11142;49.930;8.606;2023-04-05T02:35:23;100755.53;;;0.96;100.00
21956;BME280;11142;49.930;8.606;2023-04-05T02:37:53;100751.44;;;0.84;100.00
21956;BME280;11142;49.930;8.606;2023-04-05T02:40:22;100756.75;;;0.69;100.00
21956;BME280;11142;49.930;8.606;2023-04-05T02:42:51;100754.25;;;0.65;100.00
21956;BME280;11142;49.930;8.606;2023-04-05T02:45:19;100750.75;;;0.72;100.00
21956;BME280;11142;49.930;8.606;2023-04-05T02:47:47;100750.91;;;0.60;100.00
21956;BME280;11142;49.930;8.606;2023-04-05T02:50:16;100750.00;;;0.64;100.00
21956;BME280;11142;49.930;8.606;2023-04-05T02:52:46;100749.91;;;0.71;100.00
21956;BME280;11142;49.930;8.606;2023-04-05T02:55:17;100753.50;;;0.57;100.00
21956;BME280;11142;49.930;8.606;2023-04-05T02:57:45;100754.28;;;0.63;100.00
21956;BME280;11142;49.930;8.606;2023-04-05T03:00:23;100744.84;;;0.68;100.00
21956;BME280;11142;49.930;8.606;2023-04-05T03:02:53;100751.66;;;0.68;100.00
21956;BME280;11142;49.930;8.606;2023-04-05T03:05:22;100744.09;;;0.60;100.00
21956;BME280;11142;49.930;8.606;2023-04-05T03:07:51;100740.63;;;0.64;100.00
21956;BME280;11142;49.930;8.606;2023-04-05T03:10:27;100745.03;;;0.53;100.00
21956;BME280;11142;49.930;8.606;2023-04-05T03:13:10;100740.81;;;0.49;100.00
21956;BME280;11142;49.930;8.606;2023-04-05T03:15:39;100733.22;;;0.44;100.00
21956;BME280;11142;49.930;8.606;2023-04-05T03:18:11;100732.44;;;0.39;100.00
21956;BME280;11142;49.930;8.606;2023-04-05T03:20:42;100731.56;;;0.39;100.00
21956;BME280;11142;49.930;8.606;2023-04-05T03:23:17;100727.41;;;0.33;100.00
21956;BME280;11142;49.930;8.606;2023-04-05T03:25:53;100728.25;;;0.32;100.00
21956;BME280;11142;49.930;8.606;2023-04-05T03:28:25;100718.94;;;0.30;100.00
21956;BME280;11142;49.930;8.606;2023-04-05T03:30:59;100717.31;;;0.23;100.00
21956;BME280;11142;49.930;8.606;2023-04-05T03:33:27;100724.91;;;0.27;100.00
21956;BME280;11142;49.930;8.606;2023-04-05T03:35:56;100720.66;;;0.28;100.00
21956;BME280;11142;49.930;8.606;2023-04-05T03:38:26;100718.94;;;0.31;100.00
21956;BME280;11142;49.930;8.606;2023-04-05T03:41:10;100725.78;;;0.28;100.00
21956;BME280;11142;49.930;8.606;2023-04-05T03:43:38;100726.59;;;0.31;100.00
21956;BME280;11142;49.930;8.606;2023-04-05T03:46:06;100729.13;;;0.30;100.00
21956;BME280;11142;49.930;8.606;2023-04-05T03:48:35;100727.28;;;0.44;100.00
21956;BME280;11142;49.930;8.606;2023-04-05T03:51:03;100729.75;;;0.48;100.00
21956;BME280;11142;49.930;8.606;2023-04-05T03:53:31;100719.59;;;0.45;100.00
21956;BME280;11142;49.930;8.606;2023-04-05T03:56:01;100725.53;;;0.46;100.00
21956;BME280;11142;49.930;8.606;2023-04-05T03:58:44;100720.44;;;0.46;100.00
21956;BME280;11142;49.930;8.606;2023-04-05T04:01:21;100723.97;;;0.37;100.00
21956;BME280;11142;49.930;8.606;2023-04-05T04:03:49;100720.47;;;0.41;100.00
21956;BME280;11142;49.930;8.606;2023-04-05T04:06:17;100718.00;;;0.37;100.00
21956;BME280;11142;49.930;8.606;2023-04-05T04:08:45;100713.75;;;0.36;100.00
21956;BME280;11142;49.930;8.606;2023-04-05T04:11:13;100706.13;;;0.34;100.00
21956;BME280;11142;49.930;8.606;2023-04-05T04:13:43;100709.56;;;0.29;100.00
21956;BME280;11142;49.930;8.606;2023-04-05T04:16:21;100713.53;;;-0.19;100.00
21956;BME280;11142;49.930;8.606;2023-04-05T04:19:12;100720.56;;;-0.45;100.00
21956;BME280;11142;49.930;8.606;2023-04-05T04:21:47;100726.59;;;-0.60;100.00
21956;BME280;11142;49.930;8.606;2023-04-05T04:24:29;100713.91;;;-0.66;100.00
21956;BME280;11142;49.930;8.606;2023-04-05T04:27:24;100710.56;;;-0.71;100.00
21956;BME280;11142;49.930;8.606;2023-04-05T04:30:19;100713.06;;;-0.64;100.00
21956;BME280;11142;49.930;8.606;2023-04-05T04:33:03;100712.31;;;-0.78;100.00
21956;BME280;11142;49.930;8.606;2023-04-05T04:35:53;100720.91;;;-0.91;100.00
21956;BME280;11142;49.930;8.606;2023-04-05T04:38:45;100713.22;;;-0.88;100.00
21956;BME280;11142;49.930;8.606;2023-04-05T04:41:31;100711.56;;;-0.92;100.00
21956;BME280;11142;49.930;8.606;2023-04-05T04:44:26;100709.75;;;-0.79;100.00
21956;BME280;11142;49.930;8.606;2023-04-05T04:47:21;100708.13;;;-0.83;100.00
21956;BME280;11142;49.930;8.606;2023-04-05T04:50:02;100714.00;;;-0.78;100.00
21956;BME280;11142;49.930;8.606;2023-04-05T04:52:30;100721.63;;;-0.74;100.00
21956;BME280;11142;49.930;8.606;2023-04-05T04:55:00;100716.34;;;-0.52;100.00
21956;BME280;11142;49.930;8.606;2023-04-05T04:57:29;100713.72;;;-0.43;100.00
21956;BME280;11142;49.930;8.606;2023-04-05T04:59:58;100716.13;;;-0.27;100.00
21956;BME280;11142;49.930;8.606;2023-04-05T05:02:27;100715.03;;;-0.02;100.00
21956;BME280;11142;49.930;8.606;2023-04-05T05:04:57;100720.84;;;0.10;100.00
21956;BME280;11142;49.930;8.606;2023-04-05T05:07:25;100713.00;;;0.26;100.00
21956;BME280;11142;49.930;8.606;2023-04-05T05:09:53;100723.03;;;0.41;100.00
21956;BME280;11142;49.930;8.606;2023-04-05T05:12:21;100726.22;;;0.60;100.00
21956;BME280;11142;49.930;8.606;2023-04-05T05:14:50;100727.84;;;0.66;100.00
21956;BME280;11142;49.930;8.606;2023-04-05T05:17:21;100728.53;;;0.77;100.00
21956;BME280;11142;49.930;8.606;2023-04-05T05:19:52;100732.81;;;0.76;100.00
21956;BME280;11142;49.930;8.606;2023-04-05T05:22:22;100726.84;;;0.77;100.00
21956;BME280;11142;49.930;8.606;2023-04-05T05:24:50;100729.78;;;1.10;100.00
21956;BME280;11142;49.930;8.606;2023-04-05T05:27:18;100725.91;;;1.41;100.00
21956;BME280;11142;49.930;8.606;2023-04-05T05:29:47;100730.75;;;1.56;100.00
21956;BME280;11142;49.930;8.606;2023-04-05T05:32:15;100733.03;;;1.73;100.00
21956;BME280;11142;49.930;8.606;2023-04-05T05:34:43;100732.09;;;1.78;100.00
21956;BME280;11142;49.930;8.606;2023-04-05T05:37:16;100736.97;;;1.93;100.00
21956;BME280;11142;49.930;8.606;2023-04-05T05:39:44;100733.69;;;1.85;100.00
21956;BME280;11142;49.930;8.606;2023-04-05T05:42:12;100736.34;;;1.81;100.00
21956;BME280;11142;49.930;8.606;2023-04-05T05:44:40;100729.56;;;2.24;100.00
21956;BME280;11142;49.930;8.606;2023-04-05T05:47:08;100731.94;;;2.33;100.00
21956;BME280;11142;49.930;8.606;2023-04-05T05:49:37;100739.53;;;2.38;100.00
21956;BME280;11142;49.930;8.606;2023-04-05T05:52:09;100736.06;;;2.40;100.00
21956;BME280;11142;49.930;8.606;2023-04-05T05:54:38;100741.84;;;2.50;100.00
21956;BME280;11142;49.930;8.606;2023-04-05T05:57:07;100745.91;;;2.98;100.00
21956;BME280;11142;49.930;8.606;2023-04-05T05:59:35;100740.28;;;3.58;97.54
21956;BME280;11142;49.930;8.606;2023-04-05T06:02:04;100739.19;;;3.66;95.85
21956;BME280;11142;49.930;8.606;2023-04-05T06:04:35;100740.34;;;3.55;94.94
21956;BME280;11142;49.930;8.606;2023-04-05T06:07:03;100737.78;;;3.55;93.65
21956;BME280;11142;49.930;8.606;2023-04-05T06:09:32;100752.31;;;2.79;100.00
21956;BME280;11142;49.930;8.606;2023-04-05T06:12:03;100746.66;;;3.77;99.37
21956;BME280;11142;49.930;8.606;2023-04-05T06:14:32;100748.19;;;3.12;100.00
21956;BME280;11142;49.930;8.606;2023-04-05T06:17:01;100750.53;;;3.22;100.00
21956;BME280;11142;49.930;8.606;2023-04-05T06:19:30;100753.53;;;3.01;100.00
21956;BME280;11142;49.930;8.606;2023-04-05T06:21:59;100753.69;;;2.95;100.00
21956;BME280;11142;49.930;8.606;2023-04-05T06:24:28;100759.25;;;2.76;100.00
21956;BME280;11142;49.930;8.606;2023-04-05T06:26:58;100755.94;;;3.46;100.00
21956;BME280;11142;49.930;8.606;2023-04-05T06:29:29;100750.03;;;4.11;97.61
21956;BME280;11142;49.930;8.606;2023-04-05T06:31:58;100758.00;;;4.92;88.23
21956;BME280;11142;49.930;8.606;2023-04-05T06:34:33;100745.13;;;5.21;81.72
21956;BME280;11142;49.930;8.606;2023-04-05T06:37:03;100751.72;;;4.43;85.15
21956;BME280;11142;49.930;8.606;2023-04-05T06:39:32;100747.00;;;4.88;86.69
21956;BME280;11142;49.930;8.606;2023-04-05T06:42:00;100741.78;;;5.19;81.91
21956;BME280;11142;49.930;8.606;2023-04-05T06:44:38;100743.34;;;4.95;80.73
21956;BME280;11142;49.930;8.606;2023-04-05T06:47:07;100747.13;;;5.39;82.74
21956;BME280;11142;49.930;8.606;2023-04-05T06:49:35;100745.56;;;6.12;72.67
21956;BME280;11142;49.930;8.606;2023-04-05T06:52:04;100739.53;;;5.88;69.20
21956;BME280;11142;49.930;8.606;2023-04-05T06:54:33;100750.31;;;5.73;69.33
21956;BME280;11142;49.930;8.606;2023-04-05T06:57:04;100746.84;;;6.01;69.48
21956;BME280;11142;49.930;8.606;2023-04-05T06:59:33;100747.78;;;5.72;69.10
21956;BME280;11142;49.930;8.606;2023-04-05T07:02:04;100738.75;;;5.86;68.96
21956;BME280;11142;49.930;8.606;2023-04-05T07:04:32;100749.19;;;6.07;67.83
21956;BME280;11142;49.930;8.606;2023-04-05T07:07:02;100748.31;;;6.56;63.69
21956;BME280;11142;49.930;8.606;2023-04-05T07:09:33;100740.44;;;6.35;64.08
21956;BME280;11142;49.930;8.606;2023-04-05T07:12:05;100737.94;;;6.34;62.87
21956;BME280;11142;49.930;8.606;2023-04-05T07:14:34;100738.06;;;6.31;63.62
21956;BME280;11142;49.930;8.606;2023-04-05T07:17:05;100741.19;;;7.07;62.67
21956;BME280;11142;49.930;8.606;2023-04-05T07:19:33;100746.84;;;7.17;61.18
21956;BME280;11142;49.930;8.606;2023-04-05T07:22:01;100736.88;;;7.51;57.80
21956;BME280;11142;49.930;8.606;2023-04-05T07:24:30;100743.97;;;7.24;56.82
21956;BME280;11142;49.930;8.606;2023-04-05T07:26:58;100745.22;;;6.46;59.04
21956;BME280;11142;49.930;8.606;2023-04-05T07:29:28;100738.19;;;7.39;57.08
21956;BME280;11142;49.930;8.606;2023-04-05T07:31:57;100732.84;;;7.86;55.07
21956;BME280;11142;49.930;8.606;2023-04-05T07:34:26;100738.22;;;8.61;51.39
21956;BME280;11142;49.930;8.606;2023-04-05T07:36:54;100728.84;;;8.77;48.97
21956;BME280;11142;49.930;8.606;2023-04-05T07:39:23;100735.56;;;8.99;48.94
21956;BME280;11142;49.930;8.606;2023-04-05T07:41:52;100733.59;;;8.48;48.55
21956;BME280;11142;49.930;8.606;2023-04-05T07:44:20;100734.31;;;8.71;48.03
21956;BME280;11142;49.930;8.606;2023-04-05T07:46:49;100742.50;;;8.62;47.27
21956;BME280;11142;49.930;8.606;2023-04-05T07:49:17;100738.28;;;9.15;47.98
21956;BME280;11142;49.930;8.606;2023-04-05T07:51:49;100728.06;;;9.12;47.52
21956;BME280;11142;49.930;8.606;2023-04-05T07:54:21;100737.44;;;9.68;44.77
21956;BME280;11142;49.930;8.606;2023-04-05T07:56:49;100733.41;;;9.62;43.80
21956;BME280;11142;49.930;8.606;2023-04-05T07:59:20;100732.56;;;9.79;45.26
21956;BME280;11142;49.930;8.606;2023-04-05T08:01:49;100735.75;;;9.84;46.26
21956;BME280;11142;49.930;8.606;2023-04-05T08:04:20;100738.06;;;10.24;45.18
21956;BME280;11142;49.930;8.606;2023-04-05T08:06:52;100741.22;;;10.46;44.11
21956;BME280;11142;49.930;8.606;2023-04-05T08:09:21;100736.13;;;11.84;42.63
21956;BME280;11142;49.930;8.606;2023-04-05T08:11:51;100733.13;;;11.31;42.61
21956;BME280;11142;49.930;8.606;2023-04-05T08:14:19;100737.75;;;12.15;41.33
21956;BME280;11142;49.930;8.606;2023-04-05T08:16:50;100733.06;;;11.62;39.36
21956;BME280;11142;49.930;8.606;2023-04-05T08:19:20;100738.69;;;12.14;40.65
21956;BME280;11142;49.930;8.606;2023-04-05T08:21:49;100735.84;;;12.33;38.38
21956;BME280;11142;49.930;8.606;2023-04-05T08:24:19;100731.72;;;12.29;38.05
21956;BME280;11142;49.930;8.606;2023-04-05T08:26:48;100738.81;;;11.83;39.38
21956;BME280;11142;49.930;8.606;2023-04-05T08:29:16;100729.63;;;11.16;40.60
21956;BME280;11142;49.930;8.606;2023-04-05T08:31:44;100735.31;;;10.91;40.98
21956;BME280;11142;49.930;8.606;2023-04-05T08:34:14;100730.41;;;11.32;42.29
21956;BME280;11142;49.930;8.606;2023-04-05T08:36:43;100724.59;;;11.58;40.79
21956;BME280;11142;49.930;8.606;2023-04-05T08:39:15;100728.28;;;12.28;40.42
21956;BME280;11142;49.930;8.606;2023-04-05T08:41:47;100725.09;;;12.09;37.89
21956;BME280;11142;49.930;8.606;2023-04-05T08:44:16;100726.91;;;11.79;38.26
21956;BME280;11142;49.930;8.606;2023-04-05T08:46:47;100725.97;;;11.50;39.03
21956;BME280;11142;49.930;8.606;2023-04-05T08:49:25;100730.13;;;10.91;39.86
21956;BME280;11142;49.930;8.606;2023-04-05T08:51:55;100725.75;;;11.68;41.22
21956;BME280;11142;49.930;8.606;2023-04-05T08:54:27;100722.13;;;12.86;39.18
21956;BME280;11142;49.930;8.606;2023-04-05T08:57:00;100721.50;;;12.68;36.51
21956;BME280;11142;49.930;8.606;2023-04-05T08:59:31;100723.25;;;9.40;39.23
21956;BME280;11142;49.930;8.606;2023-04-05T09:02:03;100718.84;;;9.06;40.85
21956;BME280;11142;49.930;8.606;2023-04-05T09:04:34;100721.97;;;9.13;41.04
21956;BME280;11142;49.930;8.606;2023-04-05T09:07:05;100712.22;;;9.54;41.71
21956;BME280;11142;49.930;8.606;2023-04-05T09:09:35;100712.00;;;9.76;40.66
21956;BME280;11142;49.930;8.606;2023-04-05T09:12:08;100718.50;;;9.48;40.76
21956;BME280;11142;49.930;8.606;2023-04-05T09:14:37;100717.25;;;10.41;39.51
21956;BME280;11142;49.930;8.606;2023-04-05T09:17:06;100712.78;;;11.07;39.88
21956;BME280;11142;49.930;8.606;2023-04-05T09:19:35;100714.41;;;9.96;39.63
21956;BME280;11142;49.930;8.606;2023-04-05T09:22:04;100711.84;;;8.90;41.95
21956;BME280;11142;49.930;8.606;2023-04-05T09:24:40;100714.25;;;9.65;40.08
21956;BME280;11142;49.930;8.606;2023-04-05T09:27:12;100710.34;;;10.57;40.48
21956;BME280;11142;49.930;8.606;2023-04-05T09:29:44;100706.53;;;11.41;38.50
21956;BME280;11142;49.930;8.606;2023-04-05T09:32:15;100707.50;;;11.54;38.62
21956;BME280;11142;49.930;8.606;2023-04-05T09:34:45;100703.66;;;12.62;39.10
21956;BME280;11142;49.930;8.606;2023-04-05T09:37:26;100706.00;;;14.24;34.83
21956;BME280;11142;49.930;8.606;2023-04-05T09:40:00;100706.00;;;13.86;34.14
21956;BME280;11142;49.930;8.606;2023-04-05T09:42:41;100696.78;;;13.68;34.71
21956;BME280;11142;49.930;8.606;2023-04-05T09:45:11;100708.53;;;14.38;33.51
21956;BME280;11142;49.930;8.606;2023-04-05T09:48:06;100703.94;;;14.04;32.06
21956;BME280;11142;49.930;8.606;2023-04-05T09:50:36;100710.84;;;10.31;35.96
21956;BME280;11142;49.930;8.606;2023-04-05T09:53:07;100701.13;;;8.97;40.01
21956;BME280;11142;49.930;8.606;2023-04-05T09:55:35;100706.75;;;10.10;37.97
21956;BME280;11142;49.930;8.606;2023-04-05T09:58:05;100699.44;;;11.59;35.61
21956;BME280;11142;49.930;8.606;2023-04-05T10:00:44;100703.00;;;12.58;35.35
21956;BME280;11142;49.930;8.606;2023-04-05T10:03:32;100699.47;;;12.45;32.78
21956;BME280;11142;49.930;8.606;2023-04-05T10:06:13;100709.56;;;14.61;30.75
21956;BME280;11142;49.930;8.606;2023-04-05T10:08:41;100703.63;;;14.95;30.08
21956;BME280;11142;49.930;8.606;2023-04-05T10:11:09;100693.56;;;15.49;28.48
21956;BME280;11142;49.930;8.606;2023-04-05T10:13:40;100696.56;;;17.65;27.32
21956;BME280;11142;49.930;8.606;2023-04-05T10:16:12;100698.16;;;17.98;25.84
21956;BME280;11142;49.930;8.606;2023-04-05T10:18:46;100693.72;;;16.38;27.71
21956;BME280;11142;49.930;8.606;2023-04-05T10:21:19;100690.88;;;11.73;32.50
21956;BME280;11142;49.930;8.606;2023-04-05T10:23:52;100685.47;;;14.45;30.98
21956;BME280;11142;49.930;8.606;2023-04-05T10:26:23;100678.47;;;14.20;28.95
21956;BME280;11142;49.930;8.606;2023-04-05T10:28:59;100678.81;;;15.24;28.79
21956;BME280;11142;49.930;8.606;2023-04-05T10:31:32;100682.41;;;19.37;24.72
21956;BME280;11142;49.930;8.606;2023-04-05T10:35:28;100691.97;;;21.32;22.54
21956;BME280;11142;49.930;8.606;2023-04-05T10:43:22;100684.13;;;24.46;18.02
21956;BME280;11142;49.930;8.606;2023-04-05T10:54:21;100658.72;;;20.76;21.76
21956;BME280;11142;49.930;8.606;2023-04-05T10:58:06;100669.41;;;18.57;23.39
21956;BME280;11142;49.930;8.606;2023-04-05T11:01:28;100659.78;;;16.70;25.09
21956;BME280;11142;49.930;8.606;2023-04-05T11:04:34;100659.97;;;22.30;19.79
21956;BME280;11142;49.930;8.606;2023-04-05T11:08:06;100659.91;;;24.80;18.97
21956;BME280;11142;49.930;8.606;2023-04-05T11:22:28;100639.16;;;16.76;24.27
21956;BME280;11142;49.930;8.606;2023-04-05T11:26:28;100643.00;;;19.83;22.05
21956;BME280;11142;49.930;8.606;2023-04-05T11:29:52;100644.47;;;23.98;20.16
21956;BME280;11142;49.930;8.606;2023-04-05T11:32:59;100649.50;;;27.84;16.99
21956;BME280;11142;49.930;8.606;2023-04-05T11:36:38;100651.78;;;29.36;15.24
21956;BME280;11142;49.930;8.606;2023-04-05T11:43:14;100644.88;;;30.19;14.20
21956;BME280;11142;49.930;8.606;2023-04-05T11:47:10;100646.22;;;30.92;13.28
21956;BME280;11142;49.930;8.606;2023-04-05T11:50:27;100647.59;;;34.82;12.70
21956;BME280;11142;49.930;8.606;2023-04-05T11:53:35;100652.31;;;36.47;11.39
21956;BME280;11142;49.930;8.606;2023-04-05T11:56:49;100646.28;;;35.80;10.74
21956;BME280;11142;49.930;8.606;2023-04-05T12:00:26;100639.03;;;34.17;11.87
21956;BME280;11142;49.930;8.606;2023-04-05T12:04:16;100636.59;;;35.84;11.00
21956;BME280;11142;49.930;8.606;2023-04-05T12:07:44;100633.66;;;34.85;10.71
21956;BME280;11142;49.930;8.606;2023-04-05T12:11:22;100618.56;;;33.70;11.41
21956;BME280;11142;49.930;8.606;2023-04-05T12:14:39;100604.19;;;28.99;14.00
21956;BME280;11142;49.930;8.606;2023-04-05T12:21:38;100608.47;;;31.93;12.68
21956;BME280;11142;49.930;8.606;2023-04-05T12:25:10;100605.31;;;33.91;10.99
21956;BME280;11142;49.930;8.606;2023-04-05T12:28:49;100607.91;;;35.28;10.91
21956;BME280;11142;49.930;8.606;2023-04-05T12:35:47;100597.22;;;37.11;9.52
21956;BME280;11142;49.930;8.606;2023-04-05T12:54:24;100556.03;;;21.00;19.09
21956;BME280;11142;49.930;8.606;2023-04-05T12:58:21;100561.88;;;25.38;14.60
21956;BME280;11142;49.930;8.606;2023-04-05T13:01:27;100552.03;;;25.62;14.30
21956;BME280;11142;49.930;8.606;2023-04-05T13:04:59;100547.16;;;21.79;17.00
21956;BME280;11142;49.930;8.606;2023-04-05T13:08:30;100555.19;;;29.90;13.45
21956;BME280;11142;49.930;8.606;2023-04-05T13:15:27;100558.25;;;36.54;10.02
21956;BME280;11142;49.930;8.606;2023-04-05T13:18:33;100561.75;;;35.84;9.98
21956;BME280;11142;49.930;8.606;2023-04-05T13:22:05;100551.91;;;35.56;11.22
21956;BME280;11142;49.930;8.606;2023-04-05T13:29:04;100540.84;;;34.01;10.20
21956;BME280;11142;49.930;8.606;2023-04-05T13:36:30;100523.19;;;32.06;10.12
21956;BME280;11142;49.930;8.606;2023-04-05T13:40:29;100512.59;;;31.75;11.16
21956;BME280;11142;49.930;8.606;2023-04-05T13:44:33;100511.94;;;29.93;12.65
21956;BME280;11142;49.930;8.606;2023-04-05T13:48:03;100515.88;;;32.85;12.06
21956;BME280;11142;49.930;8.606;2023-04-05T13:51:59;100510.31;;;33.09;10.34
21956;BME280;11142;49.930;8.606;2023-04-05T13:55:06;100503.19;;;27.19;12.78
21956;BME280;11142;49.930;8.606;2023-04-05T13:58:12;100503.47;;;31.40;11.27
21956;BME280;11142;49.930;8.606;2023-04-05T14:05:32;100501.16;;;31.43;11.79
21956;BME280;11142;49.930;8.606;2023-04-05T14:16:27;100483.22;;;24.32;15.53
21956;BME280;11142;49.930;8.606;2023-04-05T14:20:32;100487.53;;;29.57;12.84
21956;BME280;11142;49.930;8.606;2023-04-05T14:23:25;100486.97;;;31.00;11.88
21956;BME280;11142;49.930;8.606;2023-04-05T14:26:58;100479.91;;;28.10;12.61
21956;BME280;11142;49.930;8.606;2023-04-05T14:29:28;100474.81;;;32.25;11.81
21956;BME280;11142;49.930;8.606;2023-04-05T14:32:07;100478.84;;;33.10;10.86
21956;BME280;11142;49.930;8.606;2023-04-05T14:35:04;100482.44;;;33.39;10.65
21956;BME280;11142;49.930;8.606;2023-04-05T14:37:35;100482.81;;;33.19;11.55
21956;BME280;11142;49.930;8.606;2023-04-05T14:40:20;100464.38;;;29.89;12.44
21956;BME280;11142;49.930;8.606;2023-04-05T14:43:04;100465.41;;;28.65;12.64
21956;BME280;11142;49.930;8.606;2023-04-05T14:46:12;100461.03;;;31.55;12.26
21956;BME280;11142;49.930;8.606;2023-04-05T14:48:53;100457.97;;;32.29;11.86
21956;BME280;11142;49.930;8.606;2023-04-05T14:51:51;100461.47;;;34.65;10.70
21956;BME280;11142;49.930;8.606;2023-04-05T14:54:34;100455.09;;;34.88;10.66
21956;BME280;11142;49.930;8.606;2023-04-05T14:57:27;100458.97;;;35.14;10.07
21956;BME280;11142;49.930;8.606;2023-04-05T15:00:03;100447.34;;;28.73;12.61
21956;BME280;11142;49.930;8.606;2023-04-05T15:02:49;100442.19;;;29.11;13.40
21956;BME280;11142;49.930;8.606;2023-04-05T15:06:06;100443.81;;;32.22;12.04
21956;BME280;11142;49.930;8.606;2023-04-05T15:09:03;100453.38;;;33.64;12.06
21956;BME280;11142;49.930;8.606;2023-04-05T15:11:45;100439.47;;;34.74;9.84
21956;BME280;11142;49.930;8.606;2023-04-05T15:14:28;100447.25;;;31.81;11.15
21956;BME280;11142;49.930;8.606;2023-04-05T15:16:58;100426.00;;;23.76;15.01
21956;BME280;11142;49.930;8.606;2023-04-05T15:19:30;100425.56;;;23.17;16.16
21956;BME280;11142;49.930;8.606;2023-04-05T15:22:14;100428.94;;;27.16;13.74